createdAt,value
2022-08-17T00:00:08.114Z,27.55
2022-08-17T00:01:07.727Z,27.54
2022-08-17T00:02:22.445Z,27.53
2022-08-17T00:03:07.220Z,27.52
2022-08-17T00:04:11.789Z,27.54
2022-08-17T00:05:07.161Z,27.53
2022-08-17T00:06:06.832Z,27.51
2022-08-17T00:07:06.751Z,27.49
2022-08-17T00:08:06.753Z,27.48
2022-08-17T00:09:07.544Z,27.43
2022-08-17T00:10:07.034Z,27.41
2022-08-17T00:11:06.895Z,27.42
2022-08-17T00:12:42.807Z,27.40
2022-08-17T00:13:07.173Z,27.39
2022-08-17T00:14:07.009Z,27.43
2022-08-17T00:15:08.342Z,27.43
2022-08-17T00:16:06.925Z,27.43
2022-08-17T00:17:06.952Z,27.44
2022-08-17T00:19:06.281Z,27.44
2022-08-17T00:19:08.664Z,27.44
2022-08-17T00:20:07.315Z,27.45
2022-08-17T00:21:10.490Z,27.45
2022-08-17T00:22:34.159Z,27.45
2022-08-17T00:23:07.240Z,27.46
2022-08-17T00:24:07.417Z,27.45
2022-08-17T00:25:07.729Z,27.46
2022-08-17T00:26:07.050Z,27.46
2022-08-17T00:27:07.682Z,27.45
2022-08-17T00:28:07.148Z,27.46
2022-08-17T00:29:07.372Z,27.45
2022-08-17T00:30:07.714Z,27.44
2022-08-17T00:31:07.213Z,27.43
2022-08-17T00:33:12.651Z,27.44
2022-08-17T00:33:15.572Z,27.44
2022-08-17T00:34:07.649Z,27.45
2022-08-17T00:35:07.161Z,27.46
2022-08-17T00:36:07.610Z,27.46
2022-08-17T00:37:07.235Z,27.46
2022-08-17T00:38:07.385Z,27.47
2022-08-17T00:39:07.573Z,27.45
2022-08-17T00:40:07.698Z,27.42
2022-08-17T00:41:07.414Z,27.38
2022-08-17T00:42:07.455Z,27.35
2022-08-17T00:43:07.769Z,27.33
2022-08-17T00:44:07.518Z,27.31
2022-08-17T00:45:07.909Z,27.31
2022-08-17T00:46:07.367Z,27.29
2022-08-17T00:47:07.320Z,27.29
2022-08-17T00:48:07.546Z,27.28
2022-08-17T00:49:07.445Z,27.30
2022-08-17T00:50:07.543Z,27.28
2022-08-17T00:51:07.354Z,27.29
2022-08-17T00:52:10.845Z,27.32
2022-08-17T00:53:07.464Z,27.35
2022-08-17T00:54:07.401Z,27.33
2022-08-17T00:55:07.641Z,27.35
2022-08-17T00:56:06.950Z,27.36
2022-08-17T00:57:07.091Z,27.35
2022-08-17T00:58:07.490Z,27.32
2022-08-17T00:59:07.377Z,27.29
2022-08-17T01:00:08.479Z,27.25
2022-08-17T01:01:07.432Z,27.23
2022-08-17T01:02:07.046Z,27.23
2022-08-17T01:03:07.462Z,27.23
2022-08-17T01:04:07.659Z,27.24
2022-08-17T01:05:07.289Z,27.26
2022-08-17T01:06:07.310Z,27.27
2022-08-17T01:07:07.474Z,27.27
2022-08-17T01:08:07.725Z,27.29
2022-08-17T01:09:07.398Z,27.26
2022-08-17T01:10:07.597Z,27.29
2022-08-17T01:11:07.524Z,27.29
2022-08-17T01:12:08.083Z,27.29
2022-08-17T01:13:07.415Z,27.27
2022-08-17T01:14:07.209Z,27.29
2022-08-17T01:15:08.189Z,27.31
2022-08-17T01:16:07.639Z,27.33
2022-08-17T01:17:07.137Z,27.32
2022-08-17T01:18:07.377Z,27.29
2022-08-17T01:19:07.093Z,27.27
2022-08-17T01:20:07.748Z,27.26
2022-08-17T01:21:07.728Z,27.22
2022-08-17T01:22:06.999Z,27.23
2022-08-17T01:23:07.418Z,27.26
2022-08-17T01:24:07.052Z,27.26
2022-08-17T01:25:07.086Z,27.26
2022-08-17T01:26:06.993Z,27.29
2022-08-17T01:27:10.365Z,27.32
2022-08-17T01:28:06.837Z,27.30
2022-08-17T01:29:06.892Z,27.35
2022-08-17T01:30:58.802Z,27.35
2022-08-17T01:31:08.753Z,27.37
2022-08-17T01:32:07.151Z,27.39
2022-08-17T01:33:07.452Z,27.43
2022-08-17T01:34:07.525Z,27.44
2022-08-17T01:35:07.145Z,27.43
2022-08-17T01:36:12.152Z,27.45
2022-08-17T01:37:07.183Z,27.46
2022-08-17T01:38:07.191Z,27.43
2022-08-17T01:39:07.317Z,27.43
2022-08-17T01:40:07.417Z,27.39
2022-08-17T01:41:07.403Z,27.33
2022-08-17T01:42:07.510Z,27.31
2022-08-17T01:43:06.906Z,27.27
2022-08-17T01:44:07.163Z,27.23
2022-08-17T01:45:07.364Z,27.18
2022-08-17T01:46:07.902Z,27.15
2022-08-17T01:47:06.838Z,27.12
2022-08-17T01:48:06.907Z,27.06
2022-08-17T01:49:07.157Z,27.04
2022-08-17T01:50:06.948Z,27.03
2022-08-17T01:51:06.997Z,26.95
2022-08-17T01:52:07.023Z,26.93
2022-08-17T01:53:07.069Z,26.90
2022-08-17T01:54:07.065Z,26.88
2022-08-17T01:55:07.001Z,26.87
2022-08-17T01:56:07.586Z,26.87
2022-08-17T01:57:07.426Z,26.86
2022-08-17T01:58:07.214Z,26.86
2022-08-17T01:59:06.806Z,26.86
2022-08-17T02:00:07.722Z,26.85
2022-08-17T02:01:06.837Z,26.85
2022-08-17T02:02:07.014Z,26.88
2022-08-17T02:03:06.918Z,26.90
2022-08-17T02:04:07.276Z,26.92
2022-08-17T02:05:07.283Z,26.93
2022-08-17T02:06:26.940Z,26.93
2022-08-17T02:07:07.092Z,26.95
2022-08-17T02:08:07.141Z,26.99
2022-08-17T02:09:07.098Z,27.00
2022-08-17T02:10:19.842Z,27.02
2022-08-17T02:11:11.363Z,27.03
2022-08-17T02:12:47.444Z,27.04
2022-08-17T02:13:07.317Z,27.07
2022-08-17T02:14:07.368Z,27.08
2022-08-17T02:15:07.256Z,27.09
2022-08-17T02:16:07.395Z,27.09
2022-08-17T02:17:07.559Z,27.11
2022-08-17T02:18:07.544Z,27.11
2022-08-17T02:19:07.117Z,27.12
2022-08-17T02:20:07.545Z,27.14
2022-08-17T02:21:07.377Z,27.14
2022-08-17T02:22:07.543Z,27.14
2022-08-17T02:23:06.933Z,27.14
2022-08-17T02:24:07.414Z,27.13
2022-08-17T02:25:07.818Z,27.17
2022-08-17T02:26:07.181Z,27.20
2022-08-17T02:27:07.663Z,27.18
2022-08-17T02:28:07.097Z,27.19
2022-08-17T02:29:07.502Z,27.19
2022-08-17T02:30:59.851Z,27.18
2022-08-17T02:31:09.570Z,27.19
2022-08-17T02:32:07.243Z,27.20
2022-08-17T02:33:09.232Z,27.17
2022-08-17T02:34:07.122Z,27.17
2022-08-17T02:35:07.752Z,27.12
2022-08-17T02:36:06.897Z,27.12
2022-08-17T02:37:07.355Z,27.11
2022-08-17T02:38:07.463Z,27.08
2022-08-17T02:39:07.629Z,27.07
2022-08-17T02:40:07.140Z,27.06
2022-08-17T02:41:07.605Z,27.04
2022-08-17T02:42:07.587Z,27.04
2022-08-17T02:43:07.609Z,27.04
2022-08-17T02:44:07.481Z,27.03
2022-08-17T02:45:07.238Z,27.02
2022-08-17T02:46:07.382Z,27
2022-08-17T02:47:07.402Z,27.01
2022-08-17T02:48:07.590Z,27
2022-08-17T02:49:07.492Z,27
2022-08-17T02:50:07.660Z,26.95
2022-08-17T02:51:06.982Z,26.95
2022-08-17T02:52:06.855Z,26.94
2022-08-17T02:53:08.021Z,26.92
2022-08-17T02:54:41.806Z,26.88
2022-08-17T02:55:07.366Z,26.85
2022-08-17T02:56:07.492Z,26.84
2022-08-17T02:57:07.388Z,26.79
2022-08-17T02:58:07.670Z,26.80
2022-08-17T02:59:07.054Z,26.78
2022-08-17T03:00:08.464Z,26.77
2022-08-17T03:01:07.657Z,26.78
2022-08-17T03:02:07.088Z,26.77
2022-08-17T03:03:07.329Z,26.75
2022-08-17T03:04:07.486Z,26.75
2022-08-17T03:05:07.620Z,26.75
2022-08-17T03:06:07.204Z,26.78
2022-08-17T03:07:07.380Z,26.78
2022-08-17T03:08:06.953Z,26.78
2022-08-17T03:09:07.233Z,26.79
2022-08-17T03:10:07.542Z,26.79
2022-08-17T03:11:07.035Z,26.79
2022-08-17T03:12:07.304Z,26.80
2022-08-17T03:13:07.315Z,26.78
2022-08-17T03:14:07.467Z,26.79
2022-08-17T03:15:07.760Z,26.81
2022-08-17T03:16:07.031Z,26.81
2022-08-17T03:17:07.148Z,26.81
2022-08-17T03:18:07.155Z,26.80
2022-08-17T03:19:07.525Z,26.82
2022-08-17T03:20:07.716Z,26.80
2022-08-17T03:21:07.123Z,26.81
2022-08-17T03:22:35.712Z,26.82
2022-08-17T03:23:07.803Z,26.82
2022-08-17T03:24:08.941Z,26.81
2022-08-17T03:25:10.656Z,26.81
2022-08-17T03:26:07.206Z,26.82
2022-08-17T03:27:07.582Z,26.79
2022-08-17T03:28:07.197Z,26.78
2022-08-17T03:29:07.474Z,26.79
2022-08-17T03:30:07.642Z,26.79
2022-08-17T03:31:08.028Z,26.77
2022-08-17T03:32:07.181Z,26.76
2022-08-17T03:33:07.391Z,26.73
2022-08-17T03:34:07.410Z,26.73
2022-08-17T03:35:07.355Z,26.72
2022-08-17T03:36:07.496Z,26.70
2022-08-17T03:37:07.016Z,26.71
2022-08-17T03:38:07.227Z,26.70
2022-08-17T03:39:07.261Z,26.71
2022-08-17T03:40:07.383Z,26.73
2022-08-17T03:41:06.930Z,26.73
2022-08-17T03:42:07.428Z,26.73
2022-08-17T03:43:07.392Z,26.70
2022-08-17T03:44:07.504Z,26.73
2022-08-17T03:45:07.834Z,26.70
2022-08-17T03:46:27.340Z,26.68
2022-08-17T03:47:07.816Z,26.65
2022-08-17T03:48:07.122Z,26.63
2022-08-17T03:49:07.157Z,26.61
2022-08-17T03:50:10.355Z,26.59
2022-08-17T03:51:11.421Z,26.57
2022-08-17T03:52:07.464Z,26.55
2022-08-17T03:53:06.900Z,26.56
2022-08-17T03:54:07.741Z,26.55
2022-08-17T03:55:07.163Z,26.54
2022-08-17T03:56:07.313Z,26.53
2022-08-17T03:57:07.400Z,26.54
2022-08-17T03:58:07.368Z,26.54
2022-08-17T03:59:07.405Z,26.52
2022-08-17T04:00:08.328Z,26.50
2022-08-17T04:01:07.653Z,26.49
2022-08-17T04:02:06.880Z,26.48
2022-08-17T04:03:07.138Z,26.48
2022-08-17T04:04:07.195Z,26.51
2022-08-17T04:05:07.177Z,26.51
2022-08-17T04:06:06.802Z,26.51
2022-08-17T04:07:07.027Z,26.52
2022-08-17T04:08:07.257Z,26.54
2022-08-17T04:09:07.506Z,26.52
2022-08-17T04:10:07.243Z,26.53
2022-08-17T04:11:07.247Z,26.52
2022-08-17T04:12:07.552Z,26.5
2022-08-17T04:13:07.024Z,26.51
2022-08-17T04:14:07.632Z,26.52
2022-08-17T04:15:07.924Z,26.52
2022-08-17T04:16:07.570Z,26.54
2022-08-17T04:17:07.074Z,26.57
2022-08-17T04:18:07.697Z,26.59
2022-08-17T04:19:07.312Z,26.55
2022-08-17T04:20:07.506Z,26.57
2022-08-17T04:21:07.724Z,26.58
2022-08-17T04:22:07.517Z,26.57
2022-08-17T04:23:07.587Z,26.60
2022-08-17T04:24:07.973Z,26.63
2022-08-17T04:25:07.640Z,26.63
2022-08-17T04:26:07.114Z,26.67
2022-08-17T04:27:07.602Z,26.70
2022-08-17T04:28:07.651Z,26.71
2022-08-17T04:29:06.947Z,26.74
2022-08-17T04:30:07.716Z,26.76
2022-08-17T04:31:07.195Z,26.79
2022-08-17T04:32:07.362Z,26.79
2022-08-17T04:33:07.575Z,26.81
2022-08-17T04:34:07.275Z,26.80
2022-08-17T04:35:07.896Z,26.81
2022-08-17T04:36:07.208Z,26.82
2022-08-17T04:37:07.305Z,26.83
2022-08-17T04:38:07.993Z,26.81
2022-08-17T04:39:07.450Z,26.80
2022-08-17T04:40:07.616Z,26.81
2022-08-17T04:41:07.362Z,26.82
2022-08-17T04:42:07.359Z,26.83
2022-08-17T04:43:07.848Z,26.85
2022-08-17T04:44:07.480Z,26.87
2022-08-17T04:45:07.518Z,26.90
2022-08-17T04:46:07.544Z,26.90
2022-08-17T04:47:07.241Z,26.92
2022-08-17T04:48:07.459Z,26.93
2022-08-17T04:49:08.073Z,26.94
2022-08-17T04:50:07.632Z,26.95
2022-08-17T04:51:06.956Z,26.97
2022-08-17T04:52:07.615Z,26.96
2022-08-17T04:53:07.756Z,26.96
2022-08-17T04:54:07.351Z,26.97
2022-08-17T04:55:07.656Z,26.98
2022-08-17T04:56:07.398Z,26.99
2022-08-17T04:58:07.429Z,27.00
2022-08-17T04:59:07.813Z,27.02
2022-08-17T05:00:07.810Z,27.04
2022-08-17T05:01:07.616Z,27.05
2022-08-17T05:02:07.185Z,27.06
2022-08-17T05:03:07.422Z,27.07
2022-08-17T05:04:33.137Z,27.09
2022-08-17T05:05:07.768Z,27.09
2022-08-17T05:06:07.669Z,27.06
2022-08-17T05:07:07.795Z,27.07
2022-08-17T05:08:07.060Z,27.04
2022-08-17T05:09:07.875Z,27.04
2022-08-17T05:10:07.476Z,27.03
2022-08-17T05:11:07.165Z,27.04
2022-08-17T05:12:07.534Z,27.05
2022-08-17T05:13:08.111Z,27.04
2022-08-17T05:14:07.066Z,27.06
2022-08-17T05:15:07.553Z,27.08
2022-08-17T05:16:07.019Z,27.06
2022-08-17T05:17:11.181Z,27.09
2022-08-17T05:18:07.387Z,27.10
2022-08-17T05:19:07.520Z,27.09
2022-08-17T05:20:07.042Z,27.09
2022-08-17T05:21:07.740Z,27.12
2022-08-17T05:22:07.353Z,27.13
2022-08-17T05:23:07.424Z,27.14
2022-08-17T05:24:12.847Z,27.17
2022-08-17T05:25:07.006Z,27.18
2022-08-17T05:26:07.895Z,27.19
2022-08-17T05:27:06.988Z,27.20
2022-08-17T05:28:07.814Z,27.23
2022-08-17T05:29:07.715Z,27.26
2022-08-17T05:30:07.310Z,27.28
2022-08-17T05:31:07.757Z,27.29
2022-08-17T05:32:38.088Z,27.29
2022-08-17T05:33:07.587Z,27.31
2022-08-17T05:34:07.524Z,27.30
2022-08-17T05:35:07.828Z,27.31
2022-08-17T05:36:07.322Z,27.32
2022-08-17T05:37:07.364Z,27.31
2022-08-17T05:38:07.397Z,27.32
2022-08-17T05:39:07.816Z,27.32
2022-08-17T05:40:07.284Z,27.34
2022-08-17T05:41:07.615Z,27.34
2022-08-17T05:42:07.804Z,27.35
2022-08-17T05:43:07.298Z,27.34
2022-08-17T05:44:07.419Z,27.33
2022-08-17T05:45:07.716Z,27.31
2022-08-17T05:46:06.890Z,27.31
2022-08-17T05:47:07.208Z,27.30
2022-08-17T05:48:07.489Z,27.29
2022-08-17T05:49:07.554Z,27.28
2022-08-17T05:50:09.589Z,27.29
2022-08-17T05:51:07.257Z,27.27
2022-08-17T05:52:07.415Z,27.25
2022-08-17T05:53:07.755Z,27.20
2022-08-17T05:54:07.013Z,27.14
2022-08-17T05:55:08.087Z,27.09
2022-08-17T05:56:10.885Z,26.99
2022-08-17T05:57:07.770Z,26.96
2022-08-17T05:58:07.073Z,26.87
2022-08-17T05:59:07.386Z,26.73
2022-08-17T06:00:08.439Z,26.58
2022-08-17T06:01:07.316Z,26.48
2022-08-17T06:02:07.894Z,26.44
2022-08-17T06:03:07.774Z,26.34
2022-08-17T06:04:07.203Z,26.28
2022-08-17T06:05:08.035Z,26.28
2022-08-17T06:06:07.533Z,26.23
2022-08-17T06:07:07.884Z,26.22
2022-08-17T06:08:07.921Z,26.23
2022-08-17T06:09:07.570Z,26.25
2022-08-17T06:10:07.371Z,26.25
2022-08-17T06:11:07.902Z,26.25
2022-08-17T06:12:08.281Z,26.28
2022-08-17T06:13:07.223Z,26.29
2022-08-17T06:14:07.577Z,26.29
2022-08-17T06:15:08.238Z,26.36
2022-08-17T06:16:33.213Z,26.38
2022-08-17T06:17:07.937Z,26.40
2022-08-17T06:18:07.683Z,26.42
2022-08-17T06:19:07.975Z,26.46
2022-08-17T06:20:07.525Z,26.49
2022-08-17T06:21:07.941Z,26.50
2022-08-17T06:22:07.690Z,26.53
2022-08-17T06:23:06.829Z,26.55
2022-08-17T06:24:06.867Z,26.57
2022-08-17T06:25:10.277Z,26.57
2022-08-17T06:26:07.481Z,26.53
2022-08-17T06:27:07.145Z,26.48
2022-08-17T06:28:07.690Z,26.49
2022-08-17T06:29:08.235Z,26.52
2022-08-17T06:30:08.084Z,26.55
2022-08-17T06:31:07.534Z,26.55
2022-08-17T06:32:07.726Z,26.59
2022-08-17T06:33:07.672Z,26.64
2022-08-17T06:34:07.289Z,26.69
2022-08-17T06:35:08.406Z,26.72
2022-08-17T06:36:09.585Z,26.78
2022-08-17T06:37:07.537Z,26.85
2022-08-17T06:38:07.372Z,26.93
2022-08-17T06:39:07.498Z,26.99
2022-08-17T06:40:07.391Z,27.07
2022-08-17T06:41:08.007Z,27.12
2022-08-17T06:42:07.613Z,27.18
2022-08-17T06:43:08.017Z,27.25
2022-08-17T06:44:07.853Z,27.29
2022-08-17T06:45:07.925Z,27.33
2022-08-17T06:46:07.603Z,27.40
2022-08-17T06:47:07.616Z,27.43
2022-08-17T06:48:07.978Z,27.45
2022-08-17T06:49:07.882Z,27.46
2022-08-17T06:50:07.362Z,27.46
2022-08-17T06:51:06.960Z,27.48
2022-08-17T06:52:07.392Z,27.50
2022-08-17T06:53:07.267Z,27.53
2022-08-17T06:54:07.488Z,27.56
2022-08-17T06:55:07.160Z,27.57
2022-08-17T06:56:07.165Z,27.57
2022-08-17T06:57:07.878Z,27.55
2022-08-17T06:58:16.461Z,27.53
2022-08-17T06:59:07.193Z,27.49
2022-08-17T07:00:08.949Z,27.46
2022-08-17T07:01:07.387Z,27.45
2022-08-17T07:02:07.947Z,27.43
2022-08-17T07:03:08.187Z,27.37
2022-08-17T07:04:11.956Z,27.34
2022-08-17T07:05:08.078Z,27.33
2022-08-17T07:06:07.517Z,27.29
2022-08-17T07:07:07.605Z,27.29
2022-08-17T07:08:07.106Z,27.29
2022-08-17T07:09:07.865Z,27.31
2022-08-17T07:10:07.333Z,27.31
2022-08-17T07:11:07.885Z,27.33
2022-08-17T07:12:07.404Z,27.38
2022-08-17T07:13:07.604Z,27.43
2022-08-17T07:14:07.835Z,27.42
2022-08-17T07:15:07.623Z,27.39
2022-08-17T07:16:07.245Z,27.40
2022-08-17T07:17:07.724Z,27.39
2022-08-17T07:18:07.363Z,27.39
2022-08-17T07:19:07.807Z,27.38
2022-08-17T07:20:07.673Z,27.39
2022-08-17T07:21:07.722Z,27.41
2022-08-17T07:22:07.086Z,27.44
2022-08-17T07:23:07.385Z,27.45
2022-08-17T07:24:08.100Z,27.48
2022-08-17T07:25:07.546Z,27.52
2022-08-17T07:26:06.993Z,27.56
2022-08-17T07:27:07.362Z,27.60
2022-08-17T07:28:07.932Z,27.64
2022-08-17T07:29:07.841Z,27.68
2022-08-17T07:30:10.673Z,27.68
2022-08-17T07:31:07.353Z,27.67
2022-08-17T07:32:08.007Z,27.64
2022-08-17T07:33:07.370Z,27.61
2022-08-17T07:34:07.253Z,27.59
2022-08-17T07:35:07.027Z,27.58
2022-08-17T07:36:07.742Z,27.56
2022-08-17T07:37:07.178Z,27.58
2022-08-17T07:38:07.274Z,27.59
2022-08-17T07:39:07.312Z,27.60
2022-08-17T07:40:16.338Z,27.62
2022-08-17T07:41:07.224Z,27.59
2022-08-17T07:42:07.816Z,27.55
2022-08-17T07:43:07.654Z,27.55
2022-08-17T07:44:07.412Z,27.55
2022-08-17T07:45:08.483Z,27.54
2022-08-17T07:46:06.969Z,27.54
2022-08-17T07:47:07.936Z,27.54
2022-08-17T07:48:07.757Z,27.54
2022-08-17T07:49:08.220Z,27.55
2022-08-17T07:50:07.476Z,27.55
2022-08-17T07:51:07.254Z,27.56
2022-08-17T07:52:47.683Z,27.55
2022-08-17T07:53:07.803Z,27.58
2022-08-17T07:54:14.633Z,27.58
2022-08-17T07:55:07.258Z,27.57
2022-08-17T07:56:07.622Z,27.60
2022-08-17T07:57:07.190Z,27.59
2022-08-17T07:58:08.014Z,27.54
2022-08-17T07:59:07.777Z,27.51
2022-08-17T08:00:13.487Z,27.5
2022-08-17T08:01:07.419Z,27.45
2022-08-17T08:02:07.833Z,27.31
2022-08-17T08:03:07.476Z,27.25
2022-08-17T08:04:07.190Z,27.27
2022-08-17T08:05:08.832Z,27.25
2022-08-17T08:06:08.105Z,27.24
2022-08-17T08:07:07.734Z,27.23
2022-08-17T08:08:07.487Z,27.22
2022-08-17T08:09:07.190Z,27.19
2022-08-17T08:10:07.738Z,27.14
2022-08-17T08:11:06.970Z,27.09
2022-08-17T08:12:07.878Z,27.04
2022-08-17T08:13:07.673Z,27.04
2022-08-17T08:14:07.836Z,27.04
2022-08-17T08:15:07.526Z,27.03
2022-08-17T08:16:07.206Z,27.02
2022-08-17T08:17:09.329Z,27.02
2022-08-17T08:18:07.551Z,27.02
2022-08-17T08:19:08.134Z,27.03
2022-08-17T08:20:37.865Z,26.96
2022-08-17T08:21:07.412Z,26.94
2022-08-17T08:22:07.306Z,26.93
2022-08-17T08:23:07.277Z,26.92
2022-08-17T08:24:08.371Z,26.89
2022-08-17T08:25:08.131Z,26.85
2022-08-17T08:26:07.348Z,26.79
2022-08-17T08:27:07.417Z,26.76
2022-08-17T08:28:07.230Z,26.77
2022-08-17T08:29:07.754Z,26.78
2022-08-17T08:30:08.654Z,26.77
2022-08-17T08:31:07.494Z,26.76
2022-08-17T08:32:08.297Z,26.75
2022-08-17T08:33:07.326Z,26.76
2022-08-17T08:34:07.943Z,26.75
2022-08-17T08:35:07.956Z,26.74
2022-08-17T08:36:07.599Z,26.73
2022-08-17T08:37:17.617Z,26.71
2022-08-17T08:38:07.953Z,26.65
2022-08-17T08:39:07.729Z,26.60
2022-08-17T08:40:07.512Z,26.57
2022-08-17T08:41:07.492Z,26.55
2022-08-17T08:42:07.584Z,26.54
2022-08-17T08:43:07.216Z,26.53
2022-08-17T08:44:07.775Z,26.47
2022-08-17T08:45:08.153Z,26.45
2022-08-17T08:46:08.008Z,26.41
2022-08-17T08:47:07.532Z,26.44
2022-08-17T08:48:23.078Z,26.43
2022-08-17T08:49:12.032Z,26.44
2022-08-17T08:50:07.467Z,26.45
2022-08-17T08:51:08.566Z,26.47
2022-08-17T08:52:07.583Z,26.50
2022-08-17T08:53:07.287Z,26.52
2022-08-17T08:54:07.714Z,26.56
2022-08-17T08:55:07.614Z,26.57
2022-08-17T08:56:07.624Z,26.58
2022-08-17T08:57:26.695Z,26.61
2022-08-17T08:58:08.272Z,26.63
2022-08-17T08:59:07.042Z,26.62
2022-08-17T09:00:08.731Z,26.61
2022-08-17T09:01:07.150Z,26.61
2022-08-17T09:02:07.553Z,26.57
2022-08-17T09:03:07.314Z,26.58
2022-08-17T09:04:23.227Z,26.56
2022-08-17T09:05:15.831Z,26.54
2022-08-17T09:06:32.175Z,26.53
2022-08-17T09:07:07.039Z,26.53
2022-08-17T09:08:07.327Z,26.54
2022-08-17T09:09:07.405Z,26.55
2022-08-17T09:10:07.181Z,26.57
2022-08-17T09:11:07.745Z,26.55
2022-08-17T09:12:07.238Z,26.50
2022-08-17T09:13:10.132Z,26.40
2022-08-17T09:14:07.136Z,26.29
2022-08-17T09:15:12.724Z,26.29
2022-08-17T09:16:07.266Z,26.28
2022-08-17T09:17:08.048Z,26.24
2022-08-17T09:19:00.840Z,26.18
2022-08-17T09:19:09.119Z,26.09
2022-08-17T09:20:07.724Z,26.04
2022-08-17T09:21:07.114Z,25.99
2022-08-17T09:22:07.402Z,25.98
2022-08-17T09:23:07.609Z,25.96
2022-08-17T09:24:07.189Z,25.93
2022-08-17T09:25:07.630Z,25.94
2022-08-17T09:26:07.120Z,25.92
2022-08-17T09:27:07.516Z,25.92
2022-08-17T09:28:07.746Z,25.93
2022-08-17T09:29:07.220Z,25.93
2022-08-17T09:30:08.046Z,25.93
2022-08-17T09:31:07.342Z,25.93
2022-08-17T09:32:07.305Z,25.94
2022-08-17T09:33:07.582Z,25.95
2022-08-17T09:34:07.600Z,25.98
2022-08-17T09:35:07.181Z,25.95
2022-08-17T09:36:07.838Z,25.89
2022-08-17T09:37:07.612Z,25.86
2022-08-17T09:38:07.338Z,25.85
2022-08-17T09:39:07.780Z,25.83
2022-08-17T09:40:07.592Z,25.83
2022-08-17T09:41:07.181Z,25.86
2022-08-17T09:42:07.546Z,25.88
2022-08-17T09:43:06.836Z,25.90
2022-08-17T09:44:12.103Z,25.94
2022-08-17T09:45:07.788Z,25.98
2022-08-17T09:46:07.174Z,26.01
2022-08-17T09:47:07.894Z,26.05
2022-08-17T09:48:07.579Z,26.08
2022-08-17T09:49:07.393Z,26.11
2022-08-17T09:50:07.523Z,26.10
2022-08-17T09:51:07.305Z,26.12
2022-08-17T09:52:07.905Z,26.16
2022-08-17T09:53:07.456Z,26.13
2022-08-17T09:54:36.979Z,26.13
2022-08-17T09:55:07.205Z,26.17
2022-08-17T09:56:07.353Z,26.21
2022-08-17T09:57:28.617Z,26.23
2022-08-17T09:58:07.475Z,26.23
2022-08-17T09:59:07.546Z,26.21
2022-08-17T10:00:08.538Z,26.24
2022-08-17T10:01:07.252Z,26.26
2022-08-17T10:02:07.815Z,26.29
2022-08-17T10:03:07.472Z,26.29
2022-08-17T10:04:07.977Z,26.27
2022-08-17T10:05:07.705Z,26.29
2022-08-17T10:06:07.163Z,26.29
2022-08-17T10:07:07.593Z,26.31
2022-08-17T10:08:07.177Z,26.35
2022-08-17T10:09:07.755Z,26.38
2022-08-17T10:10:13.574Z,26.44
2022-08-17T10:11:08.007Z,26.43
2022-08-17T10:12:07.483Z,26.50
2022-08-17T10:13:09.544Z,26.56
2022-08-17T10:14:35.988Z,26.62
2022-08-17T10:15:09.530Z,26.69
2022-08-17T10:16:07.526Z,26.73
2022-08-17T10:17:08.137Z,26.77
2022-08-17T10:18:07.659Z,26.79
2022-08-17T10:19:07.169Z,26.82
2022-08-17T10:20:07.818Z,26.88
2022-08-17T10:21:07.542Z,26.95
2022-08-17T10:22:32.559Z,27.02
2022-08-17T10:23:07.689Z,27.13
2022-08-17T10:24:07.235Z,27.25
2022-08-17T10:25:23.768Z,27.28
2022-08-17T10:26:07.654Z,27.31
2022-08-17T10:27:07.385Z,27.33
2022-08-17T10:28:07.429Z,27.29
2022-08-17T10:29:07.517Z,27.29
2022-08-17T10:30:07.424Z,27.29
2022-08-17T10:32:07.301Z,27.27
2022-08-17T10:33:07.800Z,27.28
2022-08-17T10:34:07.483Z,27.26
2022-08-17T10:35:07.188Z,27.28
2022-08-17T10:36:10.783Z,27.27
2022-08-17T10:37:07.742Z,27.29
2022-08-17T10:38:07.521Z,27.29
2022-08-17T10:39:07.344Z,27.30
2022-08-17T10:40:08.137Z,27.33
2022-08-17T10:41:07.375Z,27.37
2022-08-17T10:42:07.836Z,27.40
2022-08-17T10:43:07.339Z,27.45
2022-08-17T10:44:40.784Z,27.46
2022-08-17T10:45:07.777Z,27.47
2022-08-17T10:46:27.679Z,27.53
2022-08-17T10:47:07.618Z,27.57
2022-08-17T10:48:07.794Z,27.58
2022-08-17T10:49:07.390Z,27.67
2022-08-17T10:50:07.562Z,27.75
2022-08-17T10:51:07.322Z,27.80
2022-08-17T10:52:07.222Z,27.85
2022-08-17T10:53:08.040Z,27.87
2022-08-17T10:54:07.638Z,27.89
2022-08-17T10:55:07.160Z,27.86
2022-08-17T10:56:07.045Z,27.86
2022-08-17T10:57:07.489Z,27.89
2022-08-17T10:58:07.282Z,27.89
2022-08-17T10:59:07.829Z,27.90
2022-08-17T11:00:07.968Z,27.93
2022-08-17T11:01:07.535Z,27.92
2022-08-17T11:02:07.474Z,27.88
2022-08-17T11:03:07.289Z,27.84
2022-08-17T11:04:07.044Z,27.81
2022-08-17T11:05:07.874Z,27.81
2022-08-17T11:06:07.546Z,27.79
2022-08-17T11:07:07.467Z,27.78
2022-08-17T11:08:08.092Z,27.76
2022-08-17T11:09:08.116Z,27.78
2022-08-17T11:10:07.886Z,27.81
2022-08-17T11:11:07.530Z,27.80
2022-08-17T11:12:07.263Z,27.82
2022-08-17T11:13:08.315Z,27.86
2022-08-17T11:14:07.871Z,27.90
2022-08-17T11:15:07.953Z,27.95
2022-08-17T11:16:12.666Z,28.01
2022-08-17T11:17:07.306Z,28.06
2022-08-17T11:18:08.027Z,28.14
2022-08-17T11:19:07.646Z,28.15
2022-08-17T11:20:07.771Z,28.19
2022-08-17T11:21:07.509Z,28.21
2022-08-17T11:22:07.498Z,28.22
2022-08-17T11:23:07.909Z,28.21
2022-08-17T11:24:07.627Z,28.24
2022-08-17T11:25:07.210Z,28.24
2022-08-17T11:26:07.859Z,28.23
2022-08-17T11:27:07.660Z,28.21
2022-08-17T11:28:07.737Z,28.22
2022-08-17T11:29:07.712Z,28.22
2022-08-17T11:30:08.972Z,28.22
2022-08-17T11:31:08.399Z,28.23
2022-08-17T11:32:07.773Z,28.26
2022-08-17T11:33:07.336Z,28.25
2022-08-17T11:34:07.575Z,28.27
2022-08-17T11:35:07.200Z,28.36
2022-08-17T11:36:21.598Z,28.39
2022-08-17T11:37:07.347Z,28.40
2022-08-17T11:38:09.698Z,28.44
2022-08-17T11:39:07.794Z,28.45
2022-08-17T11:40:21.350Z,28.46
2022-08-17T11:41:07.395Z,28.51
2022-08-17T11:42:08.243Z,28.50
2022-08-17T11:43:08.199Z,28.50
2022-08-17T11:44:07.767Z,28.48
2022-08-17T11:45:08.231Z,28.5
2022-08-17T11:46:07.708Z,28.53
2022-08-17T11:47:07.495Z,28.55
2022-08-17T11:48:27.256Z,28.55
2022-08-17T11:49:07.892Z,28.62
2022-08-17T11:50:07.976Z,28.64
2022-08-17T11:51:07.839Z,28.65
2022-08-17T11:52:07.772Z,28.69
2022-08-17T11:53:07.401Z,28.67
2022-08-17T11:54:31.874Z,28.62
2022-08-17T11:55:31.784Z,28.60
2022-08-17T11:56:07.866Z,28.57
2022-08-17T11:57:07.900Z,28.57
2022-08-17T11:58:07.109Z,28.60
2022-08-17T11:59:07.461Z,28.62
2022-08-17T12:00:07.957Z,28.61
2022-08-17T12:01:07.718Z,28.62
2022-08-17T12:02:07.283Z,28.59
2022-08-17T12:03:07.985Z,28.60
2022-08-17T12:04:07.737Z,28.60
2022-08-17T12:05:09.713Z,28.56
2022-08-17T12:06:30.287Z,28.54
2022-08-17T12:07:07.429Z,28.55
2022-08-17T12:08:08.139Z,28.55
2022-08-17T12:09:08.209Z,28.54
2022-08-17T12:10:07.891Z,28.48
2022-08-17T12:11:07.379Z,28.45
2022-08-17T12:12:13.000Z,28.43
2022-08-17T12:13:07.550Z,28.42
2022-08-17T12:14:07.339Z,28.43
2022-08-17T12:15:10.961Z,28.46
2022-08-17T12:16:07.931Z,28.40
2022-08-17T12:17:07.801Z,28.37
2022-08-17T12:18:07.931Z,28.38
2022-08-17T12:19:07.413Z,28.38
2022-08-17T12:20:08.111Z,28.36
2022-08-17T12:21:07.742Z,28.37
2022-08-17T12:22:07.293Z,28.35
2022-08-17T12:23:08.269Z,28.32
2022-08-17T12:24:07.178Z,28.36
2022-08-17T12:25:08.297Z,28.38
2022-08-17T12:26:07.872Z,28.42
2022-08-17T12:27:07.256Z,28.41
2022-08-17T12:28:07.882Z,28.40
2022-08-17T12:29:09.393Z,28.37
2022-08-17T12:30:07.687Z,28.33
2022-08-17T12:31:07.385Z,28.30
2022-08-17T12:32:07.808Z,28.30
2022-08-17T12:33:07.183Z,28.30
2022-08-17T12:34:07.909Z,28.29
2022-08-17T12:35:07.234Z,28.28
2022-08-17T12:36:07.966Z,28.29
2022-08-17T12:37:07.597Z,28.29
2022-08-17T12:38:07.092Z,28.33
2022-08-17T12:39:14.582Z,28.39
2022-08-17T12:40:07.717Z,28.49
2022-08-17T12:41:07.626Z,28.53
2022-08-17T12:42:07.611Z,28.51
2022-08-17T12:43:07.929Z,28.53
2022-08-17T12:44:07.717Z,28.55
2022-08-17T12:45:07.533Z,28.58
2022-08-17T12:46:13.127Z,28.59
2022-08-17T12:47:07.925Z,28.63
2022-08-17T12:48:07.503Z,28.64
2022-08-17T12:49:07.612Z,28.66
2022-08-17T12:50:07.602Z,28.63
2022-08-17T12:51:08.000Z,28.61
2022-08-17T12:52:07.869Z,28.59
2022-08-17T12:53:07.406Z,28.61
2022-08-17T12:54:07.248Z,28.62
2022-08-17T12:55:07.797Z,28.62